TAF Text Data
IDs:
Format:
Raw Decoded Include METAR

Data at: 1813 UTC 03 Jul 2020

TAF for:KCLT (Charlotte/Douglas In, NC, US) issued at 1733 UTC 03 Jul 2020
Text:KCLT 031733Z 0318/0424 07003KT P6SM FEW070 SCT250
Forecast period:1800 UTC 03 July 2020 to 0100 UTC 04 July 2020
Forecast type:FROM: standard forecast or significant change
Winds:from the ENE (70 degrees) at 3 MPH (3 knots; 1.5 m/s)
Visibility:6 or more sm (10+ km)
Ceiling:at least 12,000 feet AGL
Clouds: few clouds at 7000 feet AGL, scattered clouds at 25000 feet AGL
Text:FM040100 20002KT P6SM SCT250
Forecast period:0100 to 1400 UTC 04 July 2020
Forecast type:FROM: standard forecast or significant change
Winds:from the SSW (200 degrees) at 2 MPH (2 knots; 1.0 m/s)
Visibility:6 or more sm (10+ km)
Ceiling:at least 12,000 feet AGL
Clouds: scattered clouds at 25000 feet AGL
Text:FM041400 30004KT P6SM SCT060 SCT250
Forecast period:1400 UTC 04 July 2020 to 0000 UTC 05 July 2020
Forecast type:FROM: standard forecast or significant change
Winds:from the WNW (300 degrees) at 5 MPH (4 knots; 2.1 m/s)
Visibility:6 or more sm (10+ km)
Ceiling:at least 12,000 feet AGL
Clouds: scattered clouds at 6000 feet AGL, scattered clouds at 25000 feet AGL